Time;durP1;ratioP1;P1;durP2;ratioP2;P2;SDS_P1;SDS_P2;PMS_P1;PMS_P2;Temp;Humidity;BMP_temperature;BMP_pressure;BME280_temperature;BME280_humidity;BME280_pressure;Samples;Min_cycle;Max_cycle;Signal;HPM_P1;HPM_P2
2021/05/14 00:01:36;;;;;;;15.60;14.40;;;15.50;99.90;;;;;;5052856;28;20177;-76
2021/05/14 00:04:02;;;;;;;16.60;15.10;;;15.50;99.90;;;;;;5034704;28;20762;-77
2021/05/14 00:06:28;;;;;;;15.63;14.27;;;15.40;99.90;;;;;;5052973;28;20448;-77
2021/05/14 00:08:54;;;;;;;17.33;15.50;;;15.40;99.90;;;;;;5052364;28;20499;-77
2021/05/14 00:11:20;;;;;;;16.50;14.97;;;15.40;99.90;;;;;;5052967;28;20267;-77
2021/05/14 00:13:45;;;;;;;16.57;15.00;;;15.50;99.90;;;;;;5052298;28;20252;-78
2021/05/14 00:16:11;;;;;;;16.80;15.30;;;15.50;99.90;;;;;;5035145;28;20522;-77
2021/05/14 00:18:37;;;;;;;15.70;14.33;;;15.50;99.90;;;;;;5052782;28;20622;-77
2021/05/14 00:21:03;;;;;;;16.87;15.47;;;15.50;99.90;;;;;;5052239;28;20621;-77
2021/05/14 00:23:29;;;;;;;17.50;15.80;;;15.50;99.90;;;;;;5052907;28;20600;-77
2021/05/14 00:25:55;;;;;;;16.37;14.97;;;15.50;99.90;;;;;;5052094;28;20511;-77
2021/05/14 00:28:21;;;;;;;16.60;15.10;;;15.50;99.90;;;;;;5052789;28;20175;-77
2021/05/14 00:30:47;;;;;;;17.17;15.50;;;15.50;99.90;;;;;;5051738;28;20196;-77
2021/05/14 00:33:14;;;;;;;18.00;16.20;;;15.50;99.90;;;;;;5034978;28;20443;-77
2021/05/14 00:35:39;;;;;;;17.13;15.53;;;15.40;99.90;;;;;;5052377;28;20179;-77
2021/05/14 00:38:05;;;;;;;19.23;17.40;;;15.40;99.90;;;;;;5051584;28;20900;-77
2021/05/14 00:40:32;;;;;;;19.97;17.87;;;15.40;99.90;;;;;;5052493;28;20167;-77
2021/05/14 00:42:57;;;;;;;18.57;16.77;;;15.40;99.90;;;;;;5051971;28;20180;-77
2021/05/14 00:45:23;;;;;;;20.90;18.70;;;15.40;99.90;;;;;;5052084;28;20460;-77
2021/05/14 00:47:49;;;;;;;19.63;17.53;;;15.40;99.90;;;;;;5052214;28;20679;-77
2021/05/14 00:50:16;;;;;;;19.57;17.60;;;15.40;99.90;;;;;;5052372;28;20412;-77
2021/05/14 00:52:42;;;;;;;19.80;17.70;;;15.40;99.90;;;;;;5034749;28;20585;-77
2021/05/14 00:55:08;;;;;;;20.40;18.30;;;15.40;99.90;;;;;;5034203;28;20415;-77
2021/05/14 00:57:36;;;;;;;19.47;17.57;;;15.30;99.90;;;;;;5052711;28;20205;-77
2021/05/14 01:00:03;;;;;;;19.83;17.60;;;15.40;99.90;;;;;;5055752;28;20416;-77
2021/05/14 01:02:28;;;;;;;19.73;17.73;;;15.40;99.90;;;;;;5056517;28;20781;-77
2021/05/14 01:04:54;;;;;;;17.27;15.60;;;15.40;99.90;;;;;;5055415;28;20459;-77
2021/05/14 01:07:20;;;;;;;19.67;17.60;;;15.30;99.90;;;;;;5038722;28;20179;-77
2021/05/14 01:09:46;;;;;;;19.40;17.50;;;15.30;99.90;;;;;;5055855;28;20180;-77
2021/05/14 01:12:12;;;;;;;18.23;16.33;;;15.30;99.90;;;;;;5056325;28;20437;-77
2021/05/14 01:14:38;;;;;;;18.87;16.40;;;15.30;99.90;;;;;;5038169;28;20905;-77
2021/05/14 01:17:04;;;;;;;20.30;17.93;;;15.30;99.90;;;;;;5055263;28;20857;-77
2021/05/14 01:19:30;;;;;;;19.73;17.73;;;15.30;99.90;;;;;;5056475;28;20578;-77
2021/05/14 01:21:56;;;;;;;17.83;16.07;;;15.30;99.90;;;;;;5055224;28;20172;-77
2021/05/14 01:24:22;;;;;;;20.87;18.00;;;15.20;99.90;;;;;;5056070;28;20556;-77
2021/05/14 01:26:47;;;;;;;19.13;17.13;;;15.20;99.90;;;;;;5055441;28;20508;-76
2021/05/14 01:29:13;;;;;;;20.40;18.30;;;15.30;99.90;;;;;;5055667;28;20185;-76
2021/05/14 01:31:40;;;;;;;18.50;16.70;;;15.20;99.90;;;;;;5055757;28;20174;-76
2021/05/14 01:34:07;;;;;;;19.70;17.60;;;15.20;99.90;;;;;;5054957;28;20423;-76
2021/05/14 01:36:34;;;;;;;18.87;16.00;;;15.20;99.90;;;;;;5055886;28;20511;-76
2021/05/14 01:39:16;;;;;;;18.73;16.87;;;15.10;99.90;;;;;;5054947;28;20408;-77
2021/05/14 01:41:42;;;;;;;19.37;17.47;;;15.10;99.90;;;;;;5038109;28;20446;-77
2021/05/14 01:44:08;;;;;;;20.03;17.93;;;15.10;99.90;;;;;;5055131;28;20415;-76
2021/05/14 01:46:34;;;;;;;19.47;17.67;;;15.00;99.90;;;;;;5037742;28;20471;-77
2021/05/14 01:49:00;;;;;;;20.97;18.87;;;15.00;99.90;;;;;;5055111;28;20276;-77
2021/05/14 01:51:26;;;;;;;19.90;17.90;;;14.90;99.90;;;;;;5055532;28;20436;-77
2021/05/14 01:53:53;;;;;;;19.80;17.80;;;14.80;99.90;;;;;;5054955;28;20411;-77
2021/05/14 01:56:19;;;;;;;19.57;17.67;;;14.80;99.90;;;;;;5055573;28;20419;-77
2021/05/14 01:58:47;;;;;;;18.20;16.30;;;14.80;99.90;;;;;;5055179;28;20408;-77
2021/05/14 02:01:12;;;;;;;18.63;16.93;;;14.80;99.90;;;;;;5055446;28;20401;-76
2021/05/14 02:03:38;;;;;;;19.67;17.47;;;14.90;99.90;;;;;;5055689;28;20408;-77
2021/05/14 02:06:04;;;;;;;19.20;17.40;;;14.80;99.90;;;;;;5054712;28;20202;-77
2021/05/14 02:08:31;;;;;;;20.03;18.10;;;14.80;99.90;;;;;;5055252;28;20671;-76
2021/05/14 02:10:57;;;;;;;19.27;17.17;;;14.80;99.90;;;;;;5053437;28;20900;-77
2021/05/14 02:13:22;;;;;;;19.50;17.50;;;14.80;99.90;;;;;;5055226;28;20450;-77
2021/05/14 02:15:48;;;;;;;33.90;18.50;;;14.80;99.90;;;;;;5036665;28;20776;-79
2021/05/14 02:18:14;;;;;;;18.80;17.00;;;14.80;99.90;;;;;;5055107;28;20248;-77
2021/05/14 02:20:40;;;;;;;19.80;17.90;;;14.80;99.90;;;;;;5054982;28;20177;-77
2021/05/14 02:23:06;;;;;;;19.10;16.63;;;14.80;99.90;;;;;;5054477;28;20173;-77
2021/05/14 02:25:32;;;;;;;18.80;17.00;;;14.80;99.90;;;;;;5054445;28;20796;-77
2021/05/14 02:27:57;;;;;;;19.03;17.23;;;14.80;99.90;;;;;;5054263;28;20428;-77
2021/05/14 02:30:24;;;;;;;18.30;16.30;;;14.80;99.90;;;;;;5054521;28;20198;-77
2021/05/14 02:32:49;;;;;;;19.00;17.10;;;14.90;99.90;;;;;;5036233;28;20212;-77
2021/05/14 02:35:15;;;;;;;19.17;17.30;;;14.90;99.90;;;;;;5037064;28;20424;-77
2021/05/14 02:37:42;;;;;;;19.37;17.47;;;14.80;99.90;;;;;;5054712;28;20181;-77
2021/05/14 02:40:08;;;;;;;19.73;17.83;;;14.80;99.90;;;;;;5054097;28;20437;-77
2021/05/14 02:42:34;;;;;;;19.57;17.63;;;14.80;99.90;;;;;;5054660;28;20409;-76
2021/05/14 02:45:00;;;;;;;19.17;17.27;;;14.80;99.90;;;;;;5053569;28;20456;-77
2021/05/14 02:47:27;;;;;;;19.33;17.43;;;14.80;99.90;;;;;;5054575;28;20542;-76
2021/05/14 02:49:53;;;;;;;19.97;17.97;;;14.80;99.90;;;;;;5053540;28;20407;-77
2021/05/14 02:52:19;;;;;;;19.73;17.67;;;14.80;99.90;;;;;;5054409;28;20396;-77
2021/05/14 02:54:44;;;;;;;20.07;18.17;;;14.80;99.90;;;;;;5054451;28;20301;-77
2021/05/14 02:57:10;;;;;;;20.43;18.33;;;14.80;99.90;;;;;;5053762;28;20212;-77
2021/05/14 02:59:36;;;;;;;20.43;18.43;;;14.80;99.90;;;;;;5054328;28;20181;-77
2021/05/14 03:02:01;;;;;;;19.43;17.47;;;14.80;99.90;;;;;;5053344;28;20209;-74
2021/05/14 03:04:27;;;;;;;20.40;18.37;;;14.80;99.90;;;;;;5054113;28;20623;-74
2021/05/14 03:06:53;;;;;;;20.50;18.40;;;14.80;99.90;;;;;;5053471;28;20222;-74
2021/05/14 03:09:19;;;;;;;19.83;17.73;;;14.80;99.90;;;;;;5053985;28;20171;-74
2021/05/14 03:11:44;;;;;;;18.43;16.53;;;14.80;99.90;;;;;;5053741;28;20170;-74
2021/05/14 03:14:10;;;;;;;20.27;17.30;;;14.80;99.90;;;;;;5053193;28;20178;-75
2021/05/14 03:16:38;;;;;;;18.77;16.97;;;14.80;99.90;;;;;;5054015;28;20185;-74
2021/05/14 03:19:04;;;;;;;20.37;18.27;;;14.80;99.90;;;;;;5053298;28;20213;-74
2021/05/14 03:21:31;;;;;;;20.43;18.40;;;14.70;99.90;;;;;;5053906;28;20782;-74
2021/05/14 03:24:00;;;;;;;19.23;17.07;;;14.70;99.90;;;;;;5053349;28;20473;-75
2021/05/14 03:26:26;;;;;;;21.33;19.13;;;14.70;99.90;;;;;;5053821;28;20809;-74
2021/05/14 03:28:52;;;;;;;18.57;16.87;;;14.70;99.90;;;;;;5053835;28;20431;-74
2021/05/14 03:31:18;;;;;;;20.43;18.43;;;14.70;99.90;;;;;;5035721;28;20408;-74
2021/05/14 03:33:44;;;;;;;20.17;18.10;;;14.60;99.90;;;;;;5053595;28;20405;-74
2021/05/14 03:36:10;;;;;;;19.63;17.83;;;14.60;99.90;;;;;;5053016;28;20873;-74
2021/05/14 03:38:36;;;;;;;18.57;16.83;;;14.60;99.90;;;;;;5053353;28;20171;-74
2021/05/14 03:41:16;;;;;;;19.40;17.50;;;14.60;99.90;;;;;;5052937;28;20178;-75
2021/05/14 03:43:42;;;;;;;20.80;18.70;;;14.60;99.90;;;;;;5053097;28;20410;-75
2021/05/14 03:46:08;;;;;;;24.00;19.03;;;14.60;99.90;;;;;;5052674;28;20493;-74
2021/05/14 03:48:34;;;;;;;19.50;17.60;;;14.60;99.90;;;;;;5035804;28;20428;-74
2021/05/14 03:51:00;;;;;;;19.47;17.40;;;14.60;99.90;;;;;;5052515;28;20523;-75
2021/05/14 03:53:26;;;;;;;20.47;18.37;;;14.50;99.90;;;;;;5053290;28;20412;-74
2021/05/14 03:55:52;;;;;;;20.17;18.17;;;14.50;99.90;;;;;;5053273;28;20185;-74
2021/05/14 03:58:18;;;;;;;19.40;17.60;;;14.50;99.90;;;;;;5034832;28;20426;-75
2021/05/14 04:00:44;;;;;;;21.87;19.70;;;14.50;99.90;;;;;;5053182;28;20480;-75
2021/05/14 04:03:11;;;;;;;19.93;18.03;;;14.50;99.90;;;;;;5052509;28;20412;-75
2021/05/14 04:05:39;;;;;;;20.07;18.13;;;14.50;99.90;;;;;;5053037;28;20233;-75
2021/05/14 04:08:06;;;;;;;22.80;20.60;;;14.50;99.90;;;;;;5052531;28;20430;-75
2021/05/14 04:16:01;;;;;;;18.63;16.90;;;14.50;99.90;;;;;;5052093;28;20465;-75
2021/05/14 04:18:27;;;;;;;19.50;17.50;;;14.50;99.90;;;;;;5052633;28;20455;-75
2021/05/14 04:20:53;;;;;;;18.97;17.20;;;14.50;99.90;;;;;;5053189;28;20443;-74
2021/05/14 04:23:19;;;;;;;19.80;17.80;;;14.50;99.90;;;;;;5052523;28;20249;-74
2021/05/14 04:25:45;;;;;;;19.17;17.30;;;14.60;99.90;;;;;;5054789;28;20223;-74
2021/05/14 04:28:10;;;;;;;19.30;17.50;;;14.60;99.90;;;;;;5071890;28;20172;-75
2021/05/14 04:30:38;;;;;;;19.70;17.70;;;14.60;99.90;;;;;;5072764;28;20447;-74
2021/05/14 04:33:05;;;;;;;20.17;18.07;;;14.60;99.90;;;;;;5071645;28;20535;-74
2021/05/14 04:35:32;;;;;;;19.30;17.60;;;14.60;99.90;;;;;;5072633;28;20856;-74
2021/05/14 04:37:58;;;;;;;20.43;18.53;;;14.70;99.90;;;;;;5072092;28;20417;-75
2021/05/14 04:40:24;;;;;;;21.43;19.47;;;14.70;99.90;;;;;;5072656;28;20411;-74
2021/05/14 04:42:49;;;;;;;18.63;16.63;;;14.70;99.90;;;;;;5072615;28;20407;-74
2021/05/14 04:45:16;;;;;;;18.30;16.50;;;14.70;99.90;;;;;;5071980;28;20599;-74
2021/05/14 04:47:41;;;;;;;19.17;17.17;;;14.80;99.90;;;;;;5070936;28;20196;-75
2021/05/14 04:50:08;;;;;;;17.63;15.83;;;14.80;99.90;;;;;;5071999;28;20456;-74
2021/05/14 04:52:35;;;;;;;19.40;17.67;;;14.80;99.90;;;;;;5072563;28;20821;-74
2021/05/14 04:55:01;;;;;;;18.90;16.87;;;14.80;99.90;;;;;;5071902;28;20493;-77
2021/05/14 04:57:27;;;;;;;18.37;16.67;;;14.80;99.90;;;;;;5072354;28;20535;-74
2021/05/14 04:59:53;;;;;;;18.80;16.90;;;14.90;99.90;;;;;;5072516;28;20584;-74
2021/05/14 05:02:18;;;;;;;19.33;17.53;;;14.90;99.90;;;;;;5071849;28;20177;-74
2021/05/14 05:04:45;;;;;;;18.43;16.73;;;14.90;99.90;;;;;;5072408;28;20180;-74
2021/05/14 05:07:11;;;;;;;17.57;15.87;;;15.00;99.90;;;;;;5071524;28;20171;-75
2021/05/14 05:09:37;;;;;;;17.97;16.17;;;15.00;99.90;;;;;;5072315;28;20411;-74
2021/05/14 05:12:04;;;;;;;17.70;16.00;;;15.00;99.90;;;;;;5071772;28;20862;-75
2021/05/14 05:14:29;;;;;;;18.47;16.63;;;15.00;99.90;;;;;;5070906;28;20409;-74
2021/05/14 05:16:55;;;;;;;17.80;16.10;;;15.10;99.90;;;;;;5054458;28;20420;-74
2021/05/14 05:19:21;;;;;;;18.93;17.10;;;15.10;99.90;;;;;;5070459;28;20184;-74
2021/05/14 05:21:48;;;;;;;19.70;18.00;;;15.10;99.90;;;;;;5072324;28;20845;-74
2021/05/14 05:24:13;;;;;;;17.30;15.77;;;15.20;99.90;;;;;;5071313;28;20801;-74
2021/05/14 05:26:39;;;;;;;16.63;15.13;;;15.20;99.90;;;;;;5053213;28;20525;-74
2021/05/14 05:29:05;;;;;;;17.90;16.40;;;15.20;99.90;;;;;;5051434;28;20220;-75
2021/05/14 05:31:30;;;;;;;17.90;16.20;;;15.30;99.90;;;;;;5051808;28;20175;-74
2021/05/14 05:33:56;;;;;;;18.03;16.33;;;15.30;99.90;;;;;;5034382;28;20178;-75
2021/05/14 05:36:22;;;;;;;19.00;17.10;;;15.20;99.90;;;;;;5051160;28;20208;-74
2021/05/14 05:38:51;;;;;;;17.53;15.93;;;15.20;99.90;;;;;;5051988;28;20174;-74
2021/05/14 05:41:17;;;;;;;17.47;15.77;;;15.30;99.90;;;;;;5051691;28;20412;-74
2021/05/14 05:43:46;;;;;;;18.10;16.47;;;15.30;99.90;;;;;;5034435;28;20771;-74
2021/05/14 05:46:12;;;;;;;18.83;17.13;;;15.30;99.90;;;;;;5055067;28;20466;-75
2021/05/14 05:48:38;;;;;;;16.53;14.77;;;15.40;99.90;;;;;;5055919;28;20458;-75
2021/05/14 05:51:06;;;;;;;17.80;16.10;;;15.30;99.90;;;;;;5054942;28;20832;-75
2021/05/14 05:53:32;;;;;;;18.87;17.07;;;15.30;99.90;;;;;;5055533;28;20177;-75
2021/05/14 05:55:58;;;;;;;18.00;16.40;;;15.40;99.90;;;;;;5055485;28;20415;-75
2021/05/14 05:58:24;;;;;;;16.40;14.70;;;15.40;99.90;;;;;;5054881;28;20409;-75
2021/05/14 06:00:50;;;;;;;15.63;14.33;;;15.40;99.90;;;;;;5055426;28;20253;-74
2021/05/14 06:03:16;;;;;;;17.50;16.00;;;15.40;99.90;;;;;;5054467;28;20174;-74
2021/05/14 06:05:42;;;;;;;18.03;16.50;;;15.50;99.90;;;;;;5055076;28;20673;-74
2021/05/14 06:08:08;;;;;;;16.77;15.30;;;15.50;99.90;;;;;;5054725;28;20771;-75
2021/05/14 06:10:35;;;;;;;17.70;15.60;;;15.50;99.90;;;;;;5055306;28;20408;-74
2021/05/14 06:13:00;;;;;;;16.33;14.80;;;15.50;99.90;;;;;;5055497;28;20428;-74
2021/05/14 06:15:26;;;;;;;17.70;15.80;;;15.50;99.90;;;;;;5054733;28;20420;-74
2021/05/14 06:17:52;;;;;;;16.67;15.27;;;15.60;99.90;;;;;;5055097;28;20186;-75
2021/05/14 06:20:24;;;;;;;16.77;15.30;;;15.60;99.90;;;;;;5054467;28;20215;-75
2021/05/14 06:22:50;;;;;;;16.70;15.20;;;15.70;99.90;;;;;;5055101;28;20174;-74
2021/05/14 06:25:17;;;;;;;16.73;15.30;;;15.70;99.90;;;;;;5054038;28;20555;-75
2021/05/14 06:27:43;;;;;;;16.43;14.80;;;15.70;99.90;;;;;;5055173;28;20981;-74
2021/05/14 06:30:10;;;;;;;15.90;14.43;;;15.70;99.90;;;;;;5054353;28;20448;-74
2021/05/14 06:32:44;;;;;;;15.57;14.17;;;15.80;99.90;;;;;;5054813;28;20436;-75
2021/05/14 06:35:10;;;;;;;16.03;14.53;;;15.80;99.90;;;;;;5054210;28;20406;-75
2021/05/14 06:37:37;;;;;;;15.03;13.63;;;15.90;99.90;;;;;;5055000;28;20481;-74
2021/05/14 06:40:06;;;;;;;16.33;14.83;;;15.90;99.90;;;;;;5054610;28;20420;-74
2021/05/14 06:42:32;;;;;;;16.57;15.07;;;16.00;99.90;;;;;;5054587;28;20416;-75
2021/05/14 06:44:58;;;;;;;17.43;15.93;;;16.10;99.90;;;;;;5054548;28;20532;-74
2021/05/14 06:47:23;;;;;;;16.13;14.80;;;16.10;99.90;;;;;;5036154;28;20657;-74
2021/05/14 06:49:49;;;;;;;16.87;15.47;;;16.20;99.90;;;;;;5054476;28;20179;-74
2021/05/14 06:52:15;;;;;;;15.73;14.33;;;16.20;99.90;;;;;;5053850;28;20180;-75
2021/05/14 06:54:40;;;;;;;16.63;15.23;;;16.30;99.90;;;;;;5054380;28;20180;-74
2021/05/14 06:57:06;;;;;;;16.73;15.10;;;16.30;99.90;;;;;;5053074;28;20177;-75
2021/05/14 06:59:33;;;;;;;16.77;15.17;;;16.30;99.90;;;;;;5053960;28;20185;-74
2021/05/14 07:01:58;;;;;;;15.73;14.33;;;16.40;99.90;;;;;;5054301;28;20676;-74
2021/05/14 07:04:24;;;;;;;15.43;14.13;;;16.40;99.90;;;;;;5053566;28;20413;-74
2021/05/14 07:06:50;;;;;;;15.50;14.10;;;16.40;99.90;;;;;;5054062;28;20201;-74
2021/05/14 07:09:16;;;;;;;13.90;12.70;;;16.50;99.90;;;;;;5053305;28;20175;-75
2021/05/14 07:11:41;;;;;;;12.97;11.87;;;16.60;99.60;;;;;;5053945;28;20243;-74
2021/05/14 07:14:07;;;;;;;12.83;11.60;;;16.70;98.90;;;;;;5035160;28;20185;-75
2021/05/14 07:16:33;;;;;;;13.43;12.33;;;16.70;98.40;;;;;;5054038;28;20189;-75
2021/05/14 07:18:59;;;;;;;13.23;12.07;;;16.80;98.80;;;;;;5053919;28;20173;-74
2021/05/14 07:21:24;;;;;;;12.63;11.43;;;16.80;98.60;;;;;;5052946;28;20185;-74
2021/05/14 07:23:50;;;;;;;12.47;11.33;;;16.80;98.50;;;;;;5053993;28;20662;-74
2021/05/14 07:26:17;;;;;;;11.90;10.90;;;16.90;98.10;;;;;;5053160;28;20230;-75
2021/05/14 07:28:43;;;;;;;13.10;11.73;;;17.00;98.40;;;;;;5053940;28;20173;-74
2021/05/14 07:31:08;;;;;;;12.67;11.63;;;17.00;98.40;;;;;;5053116;28;20408;-75
2021/05/14 07:33:37;;;;;;;14.47;13.13;;;17.10;98.10;;;;;;5053517;28;20415;-74
2021/05/14 07:36:04;;;;;;;13.00;11.90;;;17.20;97.10;;;;;;5053827;28;20181;-74
2021/05/14 07:38:30;;;;;;;12.63;11.63;;;17.30;97.50;;;;;;5052976;28;20547;-74
2021/05/14 07:40:56;;;;;;;13.10;11.97;;;17.40;97.20;;;;;;5053495;28;20454;-74
2021/05/14 07:43:21;;;;;;;11.60;10.70;;;17.60;96.10;;;;;;5052771;28;20353;-74
2021/05/14 07:45:47;;;;;;;11.97;10.97;;;17.70;95.80;;;;;;5052947;28;20205;-74
2021/05/14 07:48:22;;;;;;;11.90;10.90;;;17.80;95.90;;;;;;5052663;28;20200;-75
2021/05/14 07:50:49;;;;;;;12.80;11.80;;;17.90;94.80;;;;;;5053419;28;20168;-75
2021/05/14 07:53:15;;;;;;;12.03;11.10;;;18.00;94.70;;;;;;5052594;28;20884;-74
2021/05/14 07:55:40;;;;;;;11.10;10.20;;;18.10;94.10;;;;;;5053225;28;20461;-74
2021/05/14 07:58:06;;;;;;;11.50;10.60;;;18.10;92.90;;;;;;5053211;28;20178;-74
2021/05/14 08:00:32;;;;;;;9.83;9.13;;;18.30;93.60;;;;;;5052500;28;20269;-74
2021/05/14 08:02:57;;;;;;;8.17;7.57;;;18.40;93.10;;;;;;5053154;28;20178;-74
2021/05/14 08:05:23;;;;;;;9.50;8.70;;;18.40;92.70;;;;;;5052630;28;20206;-75
2021/05/14 08:08:10;;;;;;;10.10;9.07;;;18.50;92.10;;;;;;5052310;28;20181;-74
2021/05/14 08:10:36;;;;;;;12.43;11.63;;;18.50;91.60;;;;;;5053010;28;20248;-74
2021/05/14 08:13:03;;;;;;;8.30;7.70;;;18.50;91.30;;;;;;5052897;28;20799;-74
2021/05/14 08:15:30;;;;;;;9.13;8.43;;;18.60;90.50;;;;;;5052737;28;21373;-74
2021/05/14 08:17:56;;;;;;;8.57;7.87;;;18.60;89.40;;;;;;5052705;28;20499;-74
2021/05/14 08:20:22;;;;;;;8.37;7.87;;;18.80;89.50;;;;;;5052210;28;20404;-75
2021/05/14 08:22:49;;;;;;;8.40;7.87;;;18.80;89.50;;;;;;5052699;28;20413;-75
2021/05/14 08:25:15;;;;;;;10.23;9.53;;;18.80;87.60;;;;;;5052045;28;20463;-75
2021/05/14 08:27:41;;;;;;;6.10;5.60;;;18.90;87.60;;;;;;5052648;28;20420;-74
2021/05/14 08:30:09;;;;;;;5.93;5.53;;;19.00;83.70;;;;;;5034983;28;20426;-74
2021/05/14 08:32:36;;;;;;;9.10;8.33;;;19.20;83.00;;;;;;5052650;28;20505;-74
2021/05/14 08:35:02;;;;;;;7.60;7.20;;;19.30;82.10;;;;;;5052273;28;20470;-74
2021/05/14 08:37:28;;;;;;;7.63;7.03;;;19.40;85.00;;;;;;5051964;28;20412;-75
2021/05/14 08:39:54;;;;;;;9.87;9.30;;;19.50;83.50;;;;;;5052846;28;20423;-74
2021/05/14 08:42:20;;;;;;;5.73;5.20;;;19.60;84.00;;;;;;5051940;28;20235;-75
2021/05/14 08:44:46;;;;;;;6.37;5.90;;;19.70;83.00;;;;;;5052528;28;20174;-74
2021/05/14 08:47:12;;;;;;;5.90;5.60;;;19.90;81.90;;;;;;5051813;28;20181;-76
2021/05/14 08:49:39;;;;;;;5.40;4.90;;;20.00;76.70;;;;;;5052445;28;20170;-74
2021/05/14 08:52:08;;;;;;;6.03;5.73;;;20.00;74.90;;;;;;5052429;28;20494;-74
2021/05/14 08:54:35;;;;;;;8.70;7.47;;;19.90;76.10;;;;;;5051749;28;20808;-74
2021/05/14 08:57:02;;;;;;;6.77;6.10;;;19.90;75.20;;;;;;5034645;28;20417;-74
2021/05/14 08:59:27;;;;;;;6.20;5.70;;;20.00;73.70;;;;;;5051705;28;20412;-75
2021/05/14 09:01:53;;;;;;;5.87;5.47;;;20.10;74.80;;;;;;5052315;28;20466;-74
2021/05/14 09:04:19;;;;;;;6.37;5.97;;;20.20;75.90;;;;;;5033927;28;20230;-74
2021/05/14 09:06:46;;;;;;;5.70;5.30;;;20.30;73.40;;;;;;5052205;28;20240;-74
2021/05/14 09:09:14;;;;;;;5.80;5.30;;;20.30;74.60;;;;;;5052228;28;20404;-74
2021/05/14 09:11:48;;;;;;;5.33;5.03;;;20.40;74.10;;;;;;5052335;28;20404;-74
2021/05/14 09:14:38;;;;;;;4.60;4.30;;;20.60;73.70;;;;;;5051747;28;20427;-75
2021/05/14 09:17:11;;;;;;;8.53;7.83;;;20.80;71.40;;;;;;5051783;28;20608;-74
2021/05/14 09:19:39;;;;;;;5.10;4.70;;;20.70;69.30;;;;;;5053439;28;20953;-74
2021/05/14 09:22:26;;;;;;;4.90;4.50;;;20.80;65.90;;;;;;5056026;28;20759;-74
2021/05/14 09:25:02;;;;;;;4.70;4.30;;;20.50;66.40;;;;;;5055391;28;20557;-74
2021/05/14 09:27:30;;;;;;;7.50;7.00;;;20.30;68.60;;;;;;5055414;28;20412;-75
2021/05/14 09:30:01;;;;;;;6.47;6.00;;;20.20;66.70;;;;;;5056262;28;20482;-74
2021/05/14 09:32:32;;;;;;;5.73;5.17;;;20.00;69.00;;;;;;5054977;28;20568;-74
2021/05/14 09:35:00;;;;;;;5.47;4.97;;;20.00;69.40;;;;;;5055911;28;20825;-74
2021/05/14 09:37:27;;;;;;;5.93;5.63;;;20.20;70.90;;;;;;5055499;28;20420;-74
2021/05/14 09:40:22;;;;;;;4.37;3.97;;;20.30;69.80;;;;;;5055762;28;20482;-74
2021/05/14 09:42:56;;;;;;;3.63;3.43;;;20.60;73.20;;;;;;5055826;28;20550;-74
2021/05/14 09:45:24;;;;;;;3.70;3.50;;;20.80;65.30;;;;;;5055183;28;20819;-75
2021/05/14 09:48:27;;;;;;;3.87;3.57;;;21.00;65.70;;;;;;5037890;28;20420;-75
2021/05/14 09:50:53;;;;;;;4.20;3.90;;;21.10;64.30;;;;;;5055416;28;20408;-74
2021/05/14 09:53:21;;;;;;;3.10;2.90;;;21.30;64.70;;;;;;5054942;28;20456;-75
2021/05/14 09:56:26;;;;;;;4.10;3.90;;;21.40;65.30;;;;;;5055467;28;20408;-75
2021/05/14 09:58:50;;;;;;;3.83;3.63;;;21.40;60.80;;;;;;5051340;28;20447;-75
2021/05/14 10:01:16;;;;;;;5.07;4.80;;;21.30;60.70;;;;;;5054836;28;20400;-76
2021/05/14 10:03:42;;;;;;;5.87;5.57;;;21.10;62.00;;;;;;5055415;28;20957;-75
2021/05/14 10:06:09;;;;;;;4.13;3.93;;;21.20;65.80;;;;;;5055304;28;20835;-75
2021/05/14 10:08:35;;;;;;;4.17;3.67;;;21.30;68.30;;;;;;5054629;28;20440;-75
2021/05/14 10:11:02;;;;;;;4.43;4.03;;;21.60;65.30;;;;;;5055471;28;20458;-74
2021/05/14 10:13:31;;;;;;;4.20;3.90;;;21.70;61.80;;;;;;5054566;28;20247;-75
2021/05/14 10:16:01;;;;;;;3.57;3.23;;;21.70;63.00;;;;;;5055033;28;20908;-76
2021/05/14 10:18:28;;;;;;;5.53;5.17;;;21.90;62.70;;;;;;5054333;28;20852;-76
2021/05/14 10:20:54;;;;;;;4.00;3.70;;;22.10;62.10;;;;;;5054978;28;20413;-76
2021/05/14 10:23:20;;;;;;;3.70;3.47;;;22.30;63.00;;;;;;5054429;28;20880;-77
2021/05/14 10:25:50;;;;;;;4.20;4.00;;;22.50;62.00;;;;;;5054814;28;20475;-76
2021/05/14 10:28:20;;;;;;;5.10;4.70;;;22.70;63.90;;;;;;5054876;28;20186;-76
2021/05/14 10:31:00;;;;;;;5.23;4.77;;;22.90;60.90;;;;;;5036209;28;20408;-76
2021/05/14 10:33:54;;;;;;;3.97;3.63;;;23.10;59.60;;;;;;5054179;28;20481;-75
2021/05/14 10:36:27;;;;;;;4.47;4.10;;;23.10;61.40;;;;;;5050582;28;20950;-77
2021/05/14 10:39:10;;;;;;;4.70;4.40;;;23.20;58.40;;;;;;5036987;28;20418;-76
2021/05/14 10:41:52;;;;;;;4.80;4.50;;;23.20;58.40;;;;;;5054019;28;20420;-77
2021/05/14 10:44:18;;;;;;;5.17;4.90;;;23.20;59.60;;;;;;5054742;28;20515;-76
2021/05/14 10:46:44;;;;;;;5.30;4.80;;;23.40;58.40;;;;;;5054456;28;20463;-74
2021/05/14 10:49:14;;;;;;;4.40;4.10;;;23.50;59.40;;;;;;5054555;28;20392;-74
2021/05/14 10:51:45;;;;;;;4.70;4.40;;;23.30;57.70;;;;;;5054131;28;20422;-74
2021/05/14 10:54:40;;;;;;;3.20;3.00;;;23.20;57.10;;;;;;5054491;28;20423;-74
2021/05/14 10:57:07;;;;;;;4.80;4.40;;;23.10;56.60;;;;;;5054268;28;20466;-74
2021/05/14 10:59:35;;;;;;;6.03;5.53;;;23.10;58.20;;;;;;5053732;28;20426;-74
2021/05/14 11:02:21;;;;;;;5.60;5.30;;;23.10;60.20;;;;;;5054310;28;20907;-74
2021/05/14 11:04:48;;;;;;;3.90;3.70;;;23.10;60.40;;;;;;5054483;28;20479;-77
2021/05/14 11:07:34;;;;;;;4.60;4.20;;;22.90;56.00;;;;;;5036532;28;20419;-76
2021/05/14 11:10:15;;;;;;;3.80;3.60;;;22.60;56.90;;;;;;5054119;28;20452;-76
2021/05/14 11:12:42;;;;;;;5.30;4.23;;;22.30;56.60;;;;;;5053479;28;20767;-76
2021/05/14 11:15:32;;;;;;;4.80;4.40;;;22.10;56.30;;;;;;5036104;28;20424;-76
2021/05/14 11:18:07;;;;;;;4.10;3.83;;;22.10;59.80;;;;;;5041552;28;20838;-76
2021/05/14 11:20:48;;;;;;;3.60;3.33;;;22.30;59.90;;;;;;5053337;28;20485;-76
2021/05/14 11:23:34;;;;;;;3.53;3.33;;;22.50;60.10;;;;;;5054011;28;20428;-76
2021/05/14 11:26:00;;;;;;;4.07;3.87;;;22.50;57.40;;;;;;5053500;28;20882;-76
2021/05/14 11:28:56;;;;;;;3.70;3.60;;;22.60;57.50;;;;;;5035467;28;20451;-74
2021/05/14 11:31:26;;;;;;;3.80;3.50;;;22.50;58.70;;;;;;5031976;28;20432;-75
2021/05/14 11:33:55;;;;;;;4.20;3.90;;;22.40;57.60;;;;;;5053594;28;20417;-74
2021/05/14 11:36:22;;;;;;;4.20;3.97;;;22.40;57.20;;;;;;5053362;28;20424;-79
2021/05/14 11:38:53;;;;;;;3.07;2.97;;;22.30;55.50;;;;;;5053590;28;20419;-74
2021/05/14 11:41:30;;;;;;;3.87;3.67;;;22.30;55.20;;;;;;5053554;28;20412;-73
2021/05/14 11:44:04;;;;;;;3.90;3.47;;;22.20;57.30;;;;;;5053701;28;20531;-74
2021/05/14 11:46:33;;;;;;;3.83;3.53;;;22.30;59.40;;;;;;5052803;28;20554;-74
2021/05/14 11:49:06;;;;;;;3.90;3.70;;;22.60;59.60;;;;;;5053046;28;20443;-74
2021/05/14 11:51:34;;;;;;;3.83;3.63;;;22.90;57.10;;;;;;5052730;28;20412;-74
2021/05/14 11:54:26;;;;;;;4.43;3.40;;;22.90;55.50;;;;;;5053272;28;20427;-74
2021/05/14 11:56:52;;;;;;;3.27;3.07;;;22.70;54.90;;;;;;5031625;28;20435;-74
2021/05/14 11:59:21;;;;;;;3.50;3.30;;;22.60;53.80;;;;;;5053175;28;20530;-74
2021/05/14 12:01:47;;;;;;;3.60;3.40;;;22.60;55.50;;;;;;5053075;28;20185;-74
2021/05/14 12:04:13;;;;;;;4.33;3.83;;;22.70;59.40;;;;;;5052678;28;20776;-74
2021/05/14 12:06:49;;;;;;;4.97;4.67;;;22.90;56.60;;;;;;5051813;28;20210;-74
2021/05/14 12:09:15;;;;;;;3.30;3.10;;;22.80;54.70;;;;;;5034904;28;20223;-74
2021/05/14 12:11:44;;;;;;;3.70;3.47;;;22.60;53.50;;;;;;5052198;28;20421;-74
2021/05/14 12:14:12;;;;;;;5.17;3.50;;;22.60;54.50;;;;;;5035170;28;20408;-74
2021/05/14 12:16:39;;;;;;;4.30;3.30;;;22.50;54.30;;;;;;5052333;28;20424;-74
2021/05/14 12:19:05;;;;;;;3.27;3.03;;;22.40;55.30;;;;;;5052849;28;20417;-74
2021/05/14 12:21:35;;;;;;;3.80;3.60;;;22.40;55.60;;;;;;5052223;28;20466;-74
2021/05/14 12:24:14;;;;;;;4.63;4.33;;;22.30;55.70;;;;;;5052898;28;20393;-74
2021/05/14 12:26:41;;;;;;;4.43;4.03;;;22.50;58.10;;;;;;5052261;28;20501;-74
2021/05/14 12:29:24;;;;;;;3.83;3.63;;;22.70;58.00;;;;;;5052359;28;20912;-74
2021/05/14 12:32:03;;;;;;;4.60;4.30;;;22.80;55.80;;;;;;5052416;28;20996;-74
2021/05/14 12:34:28;;;;;;;4.50;4.20;;;22.80;54.90;;;;;;5052016;28;20983;-74
2021/05/14 12:36:56;;;;;;;3.70;3.50;;;22.60;54.80;;;;;;5052619;28;20487;-74
2021/05/14 12:39:23;;;;;;;3.70;3.50;;;22.40;54.80;;;;;;5052527;28;20184;-74
2021/05/14 12:41:49;;;;;;;3.80;3.50;;;22.30;53.80;;;;;;5051569;28;20757;-74
2021/05/14 12:44:32;;;;;;;4.17;3.87;;;22.20;53.40;;;;;;5052081;28;20427;-74